sensor_id;sensor_type;location;lat;lon;timestamp;pressure;altitude;pressure_sealevel;temperature;humidity
62038;BME280;47991;42.974;12.082;2024-02-26T00:01:13;97030.20;;;1.62;90.36
62038;BME280;47991;42.974;12.082;2024-02-26T00:03:54;97028.45;;;1.62;90.64
62038;BME280;47991;42.974;12.082;2024-02-26T00:06:26;97027.91;;;1.64;90.62
62038;BME280;47991;42.974;12.082;2024-02-26T00:08:53;97023.21;;;1.66;90.47
62038;BME280;47991;42.974;12.082;2024-02-26T00:11:20;97022.70;;;1.66;90.70
62038;BME280;47991;42.974;12.082;2024-02-26T00:13:47;97026.71;;;1.61;90.37
62038;BME280;47991;42.974;12.082;2024-02-26T00:16:14;97030.92;;;1.57;90.32
62038;BME280;47991;42.974;12.082;2024-02-26T00:18:41;97028.48;;;1.56;90.58
62038;BME280;47991;42.974;12.082;2024-02-26T00:21:08;97031.27;;;1.58;90.94
62038;BME280;47991;42.974;12.082;2024-02-26T00:23:36;97035.45;;;1.57;90.22
62038;BME280;47991;42.974;12.082;2024-02-26T00:26:04;97026.60;;;1.50;90.55
62038;BME280;47991;42.974;12.082;2024-02-26T00:28:31;97024.00;;;1.47;90.32
62038;BME280;47991;42.974;12.082;2024-02-26T00:30:58;97023.47;;;1.47;90.71
62038;BME280;47991;42.974;12.082;2024-02-26T00:33:25;97019.48;;;1.45;91.16
62038;BME280;47991;42.974;12.082;2024-02-26T00:35:52;97021.92;;;1.43;91.14
62038;BME280;47991;42.974;12.082;2024-02-26T00:38:19;97021.76;;;1.43;90.41
62038;BME280;47991;42.974;12.082;2024-02-26T00:40:47;97017.39;;;1.44;90.80
62038;BME280;47991;42.974;12.082;2024-02-26T00:43:14;97019.48;;;1.45;90.85
62038;BME280;47991;42.974;12.082;2024-02-26T00:45:41;97014.98;;;1.40;91.27
62038;BME280;47991;42.974;12.082;2024-02-26T00:48:08;97014.45;;;1.40;91.47
62038;BME280;47991;42.974;12.082;2024-02-26T00:50:38;97010.96;;;1.42;91.04
62038;BME280;47991;42.974;12.082;2024-02-26T00:53:06;97008.16;;;1.42;91.28
62038;BME280;47991;42.974;12.082;2024-02-26T00:55:33;97006.97;;;1.37;91.95
62038;BME280;47991;42.974;12.082;2024-02-26T00:58:00;97013.91;;;1.41;91.34
62038;BME280;47991;42.974;12.082;2024-02-26T01:00:27;97011.66;;;1.41;90.91
62038;BME280;47991;42.974;12.082;2024-02-26T01:02:54;97007.33;;;1.35;90.72
62038;BME280;47991;42.974;12.082;2024-02-26T01:05:21;97002.48;;;1.29;91.29
62038;BME280;47991;42.974;12.082;2024-02-26T01:07:48;96996.03;;;1.31;91.52
62038;BME280;47991;42.974;12.082;2024-02-26T01:10:15;96995.69;;;1.30;90.86
62038;BME280;47991;42.974;12.082;2024-02-26T01:12:43;96994.13;;;1.25;91.25
62038;BME280;47991;42.974;12.082;2024-02-26T01:15:10;96991.02;;;1.19;90.99
62038;BME280;47991;42.974;12.082;2024-02-26T01:17:37;96988.95;;;1.17;90.81
62038;BME280;47991;42.974;12.082;2024-02-26T01:20:06;96985.29;;;1.13;91.70
62038;BME280;47991;42.974;12.082;2024-02-26T01:22:33;96985.82;;;1.17;91.64
62038;BME280;47991;42.974;12.082;2024-02-26T01:25:00;96979.53;;;1.20;91.73
62038;BME280;47991;42.974;12.082;2024-02-26T01:27:27;96978.48;;;1.24;91.29
62038;BME280;47991;42.974;12.082;2024-02-26T01:29:55;96976.21;;;1.22;90.99
62038;BME280;47991;42.974;12.082;2024-02-26T01:32:22;96974.17;;;1.10;91.11
62038;BME280;47991;42.974;12.082;2024-02-26T01:34:49;96971.58;;;1.08;91.87
62038;BME280;47991;42.974;12.082;2024-02-26T01:37:16;96970.70;;;1.09;91.77
62038;BME280;47991;42.974;12.082;2024-02-26T01:39:43;96968.08;;;1.10;91.76
62038;BME280;47991;42.974;12.082;2024-02-26T01:42:10;96963.23;;;1.07;91.85
62038;BME280;47991;42.974;12.082;2024-02-26T01:44:37;96962.34;;;1.05;91.84
62038;BME280;47991;42.974;12.082;2024-02-26T01:47:07;96960.27;;;1.05;91.34
62038;BME280;47991;42.974;12.082;2024-02-26T01:49:36;96959.91;;;1.04;91.09
62038;BME280;47991;42.974;12.082;2024-02-26T01:52:04;96957.52;;;0.98;91.45
62038;BME280;47991;42.974;12.082;2024-02-26T01:54:37;96952.13;;;0.99;91.73
62038;BME280;47991;42.974;12.082;2024-02-26T01:57:06;96949.14;;;1.01;92.59
62038;BME280;47991;42.974;12.082;2024-02-26T01:59:34;96944.61;;;1.02;92.53
62038;BME280;47991;42.974;12.082;2024-02-26T02:02:06;96943.58;;;1.03;92.45
62038;BME280;47991;42.974;12.082;2024-02-26T02:04:35;96943.05;;;1.02;91.91
62038;BME280;47991;42.974;12.082;2024-02-26T02:07:03;96940.60;;;1.04;92.22
62038;BME280;47991;42.974;12.082;2024-02-26T02:09:31;96938.67;;;1.07;93.70
62038;BME280;47991;42.974;12.082;2024-02-26T02:12:00;96937.70;;;0.89;94.93
62038;BME280;47991;42.974;12.082;2024-02-26T02:14:27;96932.15;;;0.85;93.67
62038;BME280;47991;42.974;12.082;2024-02-26T02:16:54;96930.75;;;0.86;93.24
62038;BME280;47991;42.974;12.082;2024-02-26T02:19:21;96929.90;;;0.81;93.03
62038;BME280;47991;42.974;12.082;2024-02-26T02:21:48;96928.52;;;0.79;92.93
62038;BME280;47991;42.974;12.082;2024-02-26T02:24:15;96922.27;;;0.79;92.89
62038;BME280;47991;42.974;12.082;2024-02-26T02:26:42;96921.20;;;0.80;92.58
62038;BME280;47991;42.974;12.082;2024-02-26T02:29:11;96917.73;;;0.80;92.93
62038;BME280;47991;42.974;12.082;2024-02-26T02:31:38;96913.05;;;0.73;92.74
62038;BME280;47991;42.974;12.082;2024-02-26T02:34:05;96911.85;;;0.68;92.67
62038;BME280;47991;42.974;12.082;2024-02-26T02:36:33;96905.77;;;0.67;93.08
62038;BME280;47991;42.974;12.082;2024-02-26T02:39:00;96906.46;;;0.66;92.99
62038;BME280;47991;42.974;12.082;2024-02-26T02:41:27;96904.73;;;0.66;93.47
62038;BME280;47991;42.974;12.082;2024-02-26T02:43:56;96903.69;;;0.67;93.37
62038;BME280;47991;42.974;12.082;2024-02-26T02:46:23;96898.80;;;0.70;93.19
62038;BME280;47991;42.974;12.082;2024-02-26T02:48:50;96898.43;;;0.77;93.93
62038;BME280;47991;42.974;12.082;2024-02-26T02:51:18;96900.14;;;0.83;93.53
62038;BME280;47991;42.974;12.082;2024-02-26T02:53:45;96896.12;;;0.87;95.60
62038;BME280;47991;42.974;12.082;2024-02-26T02:56:12;96890.23;;;0.83;95.52
62038;BME280;47991;42.974;12.082;2024-02-26T02:58:39;96893.16;;;0.86;94.58
62038;BME280;47991;42.974;12.082;2024-02-26T03:01:06;96890.39;;;0.85;93.62
62038;BME280;47991;42.974;12.082;2024-02-26T03:03:33;96892.14;;;0.82;93.29
62038;BME280;47991;42.974;12.082;2024-02-26T03:06:00;96890.77;;;0.80;93.33
62038;BME280;47991;42.974;12.082;2024-02-26T03:08:27;96886.91;;;0.83;93.20
62038;BME280;47991;42.974;12.082;2024-02-26T03:10:55;96887.77;;;0.85;92.91
62038;BME280;47991;42.974;12.082;2024-02-26T03:13:21;96886.72;;;0.88;92.98
62038;BME280;47991;42.974;12.082;2024-02-26T03:15:48;96887.78;;;0.85;92.97
62038;BME280;47991;42.974;12.082;2024-02-26T03:18:15;96885.39;;;0.78;93.06
62038;BME280;47991;42.974;12.082;2024-02-26T03:20:43;96885.73;;;0.74;93.06
62038;BME280;47991;42.974;12.082;2024-02-26T03:23:10;96885.23;;;0.70;93.34
62038;BME280;47991;42.974;12.082;2024-02-26T03:25:39;96879.86;;;0.66;93.41
62038;BME280;47991;42.974;12.082;2024-02-26T03:28:06;96881.59;;;0.64;93.70
62038;BME280;47991;42.974;12.082;2024-02-26T03:30:33;96876.02;;;0.65;94.47
62038;BME280;47991;42.974;12.082;2024-02-26T03:33:01;96872.36;;;0.68;94.61
62038;BME280;47991;42.974;12.082;2024-02-26T03:35:28;96870.23;;;0.76;94.09
62038;BME280;47991;42.974;12.082;2024-02-26T03:37:55;96867.42;;;0.82;93.69
62038;BME280;47991;42.974;12.082;2024-02-26T03:40:22;96866.73;;;0.84;93.29
62038;BME280;47991;42.974;12.082;2024-02-26T03:42:49;96868.83;;;0.81;92.88
62038;BME280;47991;42.974;12.082;2024-02-26T03:45:15;96865.00;;;0.80;93.17
62038;BME280;47991;42.974;12.082;2024-02-26T03:47:44;96866.22;;;0.81;93.24
62038;BME280;47991;42.974;12.082;2024-02-26T03:50:11;96859.27;;;0.81;93.06
62038;BME280;47991;42.974;12.082;2024-02-26T03:52:37;96865.70;;;0.82;92.99
62038;BME280;47991;42.974;12.082;2024-02-26T03:55:07;96864.48;;;0.80;92.66
62038;BME280;47991;42.974;12.082;2024-02-26T03:57:36;96860.35;;;0.70;92.82
62038;BME280;47991;42.974;12.082;2024-02-26T04:00:03;96858.65;;;0.63;93.09
62038;BME280;47991;42.974;12.082;2024-02-26T04:02:30;96856.77;;;0.54;93.44
62038;BME280;47991;42.974;12.082;2024-02-26T04:04:57;96859.05;;;0.46;93.61
62038;BME280;47991;42.974;12.082;2024-02-26T04:07:25;96856.80;;;0.41;93.62
62038;BME280;47991;42.974;12.082;2024-02-26T04:09:53;96860.27;;;0.43;93.67
62038;BME280;47991;42.974;12.082;2024-02-26T04:12:19;96859.39;;;0.50;94.01
62038;BME280;47991;42.974;12.082;2024-02-26T04:14:46;96861.80;;;0.57;94.15
62038;BME280;47991;42.974;12.082;2024-02-26T04:17:13;96863.71;;;0.54;93.58
62038;BME280;47991;42.974;12.082;2024-02-26T04:19:40;96864.92;;;0.56;93.79
62038;BME280;47991;42.974;12.082;2024-02-26T04:22:07;96864.23;;;0.56;93.10
62038;BME280;47991;42.974;12.082;2024-02-26T04:24:36;96867.91;;;0.51;93.15
62038;BME280;47991;42.974;12.082;2024-02-26T04:27:03;96866.17;;;0.44;93.47
62038;BME280;47991;42.974;12.082;2024-02-26T04:29:30;96868.29;;;0.40;93.53
62038;BME280;47991;42.974;12.082;2024-02-26T04:31:57;96867.25;;;0.36;93.32
62038;BME280;47991;42.974;12.082;2024-02-26T04:34:24;96861.88;;;0.34;93.67
62038;BME280;47991;42.974;12.082;2024-02-26T04:36:50;96859.98;;;0.29;93.49
62038;BME280;47991;42.974;12.082;2024-02-26T04:39:17;96857.55;;;0.26;93.69
62038;BME280;47991;42.974;12.082;2024-02-26T04:41:45;96857.54;;;0.28;94.29
62038;BME280;47991;42.974;12.082;2024-02-26T04:44:11;96855.27;;;0.32;94.45
62038;BME280;47991;42.974;12.082;2024-02-26T04:46:38;96857.17;;;0.39;94.38
62038;BME280;47991;42.974;12.082;2024-02-26T04:49:05;96857.33;;;0.42;94.49
62038;BME280;47991;42.974;12.082;2024-02-26T04:51:32;96856.45;;;0.44;94.16
62038;BME280;47991;42.974;12.082;2024-02-26T04:53:59;96853.83;;;0.48;94.07
62038;BME280;47991;42.974;12.082;2024-02-26T04:56:26;96855.90;;;0.51;93.77
62038;BME280;47991;42.974;12.082;2024-02-26T04:58:53;96854.34;;;0.51;93.53
62038;BME280;47991;42.974;12.082;2024-02-26T05:01:20;96859.21;;;0.52;93.39
62038;BME280;47991;42.974;12.082;2024-02-26T05:03:47;96857.46;;;0.51;93.25
62038;BME280;47991;42.974;12.082;2024-02-26T05:06:14;96856.42;;;0.49;93.30
62038;BME280;47991;42.974;12.082;2024-02-26T05:08:41;96853.29;;;0.50;93.44
62038;BME280;47991;42.974;12.082;2024-02-26T05:11:10;96850.34;;;0.50;93.42
62038;BME280;47991;42.974;12.082;2024-02-26T05:13:38;96854.16;;;0.49;93.51
62038;BME280;47991;42.974;12.082;2024-02-26T05:16:05;96852.42;;;0.51;93.51
62038;BME280;47991;42.974;12.082;2024-02-26T05:18:32;96848.24;;;0.52;93.47
62038;BME280;47991;42.974;12.082;2024-02-26T05:20:59;96848.23;;;0.58;93.66
62038;BME280;47991;42.974;12.082;2024-02-26T05:23:26;96847.16;;;0.63;93.62
62038;BME280;47991;42.974;12.082;2024-02-26T05:25:53;96849.77;;;0.65;93.57
62038;BME280;47991;42.974;12.082;2024-02-26T05:28:20;96847.69;;;0.65;93.51
62038;BME280;47991;42.974;12.082;2024-02-26T05:30:47;96843.67;;;0.65;93.53
62038;BME280;47991;42.974;12.082;2024-02-26T05:33:14;96841.59;;;0.63;93.51
62038;BME280;47991;42.974;12.082;2024-02-26T05:35:41;96846.30;;;0.60;93.55
62038;BME280;47991;42.974;12.082;2024-02-26T05:38:08;96844.57;;;0.58;93.72
62038;BME280;47991;42.974;12.082;2024-02-26T05:40:35;96850.14;;;0.56;93.79
62038;BME280;47991;42.974;12.082;2024-02-26T05:43:02;96847.38;;;0.57;93.63
62038;BME280;47991;42.974;12.082;2024-02-26T05:45:29;96846.65;;;0.59;93.84
62038;BME280;47991;42.974;12.082;2024-02-26T05:47:56;96848.04;;;0.62;93.92
62038;BME280;47991;42.974;12.082;2024-02-26T05:50:23;96847.15;;;0.66;94.08
62038;BME280;47991;42.974;12.082;2024-02-26T05:52:49;96841.91;;;0.71;94.01
62038;BME280;47991;42.974;12.082;2024-02-26T05:55:16;96842.77;;;0.74;94.14
62038;BME280;47991;42.974;12.082;2024-02-26T05:57:43;96845.91;;;0.74;94.07
62038;BME280;47991;42.974;12.082;2024-02-26T06:00:12;96849.39;;;0.73;94.41
62038;BME280;47991;42.974;12.082;2024-02-26T06:02:39;96852.66;;;0.74;94.17
62038;BME280;47991;42.974;12.082;2024-02-26T06:05:06;96852.48;;;0.80;94.37
62038;BME280;47991;42.974;12.082;2024-02-26T06:07:35;96851.59;;;0.85;94.78
62038;BME280;47991;42.974;12.082;2024-02-26T06:10:03;96853.30;;;0.93;94.92
62038;BME280;47991;42.974;12.082;2024-02-26T06:12:31;96854.48;;;0.99;94.67
62038;BME280;47991;42.974;12.082;2024-02-26T06:14:59;96859.50;;;1.04;94.97
62038;BME280;47991;42.974;12.082;2024-02-26T06:17:27;96859.30;;;1.07;94.55
62038;BME280;47991;42.974;12.082;2024-02-26T06:19:55;96866.41;;;1.14;94.96
62038;BME280;47991;42.974;12.082;2024-02-26T06:22:22;96860.63;;;1.18;95.39
62038;BME280;47991;42.974;12.082;2024-02-26T06:24:49;96859.05;;;1.20;95.53
62038;BME280;47991;42.974;12.082;2024-02-26T06:27:16;96863.01;;;1.29;95.68
62038;BME280;47991;42.974;12.082;2024-02-26T06:29:43;96869.55;;;1.39;97.49
62038;BME280;47991;42.974;12.082;2024-02-26T06:32:10;96873.37;;;1.42;96.85
62038;BME280;47991;42.974;12.082;2024-02-26T06:34:37;96871.62;;;1.45;97.95
62038;BME280;47991;42.974;12.082;2024-02-26T06:37:05;96873.49;;;1.50;97.85
62038;BME280;47991;42.974;12.082;2024-02-26T06:39:32;96880.61;;;1.54;97.89
62038;BME280;47991;42.974;12.082;2024-02-26T06:41:59;96883.20;;;1.56;98.11
62038;BME280;47991;42.974;12.082;2024-02-26T06:44:29;96882.13;;;1.61;98.12
62038;BME280;47991;42.974;12.082;2024-02-26T06:46:59;96883.98;;;1.69;98.69
62038;BME280;47991;42.974;12.082;2024-02-26T06:49:27;96881.83;;;1.78;97.77
62038;BME280;47991;42.974;12.082;2024-02-26T06:51:54;96886.61;;;1.88;97.71
62038;BME280;47991;42.974;12.082;2024-02-26T06:54:21;96890.03;;;1.97;98.15
62038;BME280;47991;42.974;12.082;2024-02-26T06:56:50;96888.76;;;2.03;98.70
62038;BME280;47991;42.974;12.082;2024-02-26T06:59:17;96887.48;;;2.10;100.00
62038;BME280;47991;42.974;12.082;2024-02-26T07:01:44;96884.96;;;2.18;99.64
62038;BME280;47991;42.974;12.082;2024-02-26T07:04:10;96882.05;;;2.29;99.03
62038;BME280;47991;42.974;12.082;2024-02-26T07:06:37;96878.64;;;2.38;99.11
62038;BME280;47991;42.974;12.082;2024-02-26T07:09:04;96882.89;;;2.51;98.68
62038;BME280;47991;42.974;12.082;2024-02-26T07:11:31;96877.20;;;2.59;99.42
62038;BME280;47991;42.974;12.082;2024-02-26T07:13:58;96880.30;;;2.64;99.56
62038;BME280;47991;42.974;12.082;2024-02-26T07:16:26;96880.13;;;2.64;99.62
62038;BME280;47991;42.974;12.082;2024-02-26T07:18:53;96884.18;;;2.60;99.43
62038;BME280;47991;42.974;12.082;2024-02-26T07:21:20;96890.54;;;2.53;99.20
62038;BME280;47991;42.974;12.082;2024-02-26T07:23:47;96891.98;;;2.50;99.39
62038;BME280;47991;42.974;12.082;2024-02-26T07:26:14;96895.11;;;2.50;99.60
62038;BME280;47991;42.974;12.082;2024-02-26T07:28:41;96901.66;;;2.39;99.67
62038;BME280;47991;42.974;12.082;2024-02-26T07:31:08;96904.38;;;2.29;100.00
62038;BME280;47991;42.974;12.082;2024-02-26T07:33:35;96907.37;;;2.26;99.96
62038;BME280;47991;42.974;12.082;2024-02-26T07:36:03;96907.27;;;2.20;99.88
62038;BME280;47991;42.974;12.082;2024-02-26T07:38:30;96903.45;;;2.17;100.00
62038;BME280;47991;42.974;12.082;2024-02-26T07:40:58;96901.17;;;2.17;100.00
62038;BME280;47991;42.974;12.082;2024-02-26T07:43:25;96900.61;;;2.22;100.00
62038;BME280;47991;42.974;12.082;2024-02-26T07:45:52;96901.98;;;2.26;100.00
62038;BME280;47991;42.974;12.082;2024-02-26T07:48:19;96903.34;;;2.30;100.00
62038;BME280;47991;42.974;12.082;2024-02-26T07:50:46;96901.09;;;2.27;100.00
62038;BME280;47991;42.974;12.082;2024-02-26T07:53:13;96902.92;;;2.35;100.00
62038;BME280;47991;42.974;12.082;2024-02-26T07:55:41;96908.24;;;2.44;100.00
62038;BME280;47991;42.974;12.082;2024-02-26T07:58:08;96908.27;;;2.59;100.00
62038;BME280;47991;42.974;12.082;2024-02-26T08:00:35;96906.90;;;2.73;100.00
62038;BME280;47991;42.974;12.082;2024-02-26T08:03:02;96910.42;;;2.85;100.00
62038;BME280;47991;42.974;12.082;2024-02-26T08:05:29;96908.73;;;2.94;100.00
62038;BME280;47991;42.974;12.082;2024-02-26T08:07:56;96904.20;;;3.09;100.00
62038;BME280;47991;42.974;12.082;2024-02-26T08:10:23;96909.18;;;3.15;99.69
62038;BME280;47991;42.974;12.082;2024-02-26T08:12:49;96910.23;;;3.16;99.00
62038;BME280;47991;42.974;12.082;2024-02-26T08:15:16;96913.08;;;3.12;98.87
62038;BME280;47991;42.974;12.082;2024-02-26T08:17:45;96917.89;;;3.03;98.93
62038;BME280;47991;42.974;12.082;2024-02-26T08:20:14;96921.08;;;2.99;98.93
62038;BME280;47991;42.974;12.082;2024-02-26T08:22:41;96919.84;;;3.01;99.34
62038;BME280;47991;42.974;12.082;2024-02-26T08:25:08;96912.80;;;3.05;99.43
62038;BME280;47991;42.974;12.082;2024-02-26T08:27:36;96915.57;;;3.08;99.06
62038;BME280;47991;42.974;12.082;2024-02-26T08:30:04;96917.27;;;3.10;99.34
62038;BME280;47991;42.974;12.082;2024-02-26T08:32:31;96915.69;;;3.13;99.14
62038;BME280;47991;42.974;12.082;2024-02-26T08:34:58;96911.85;;;3.11;99.25
62038;BME280;47991;42.974;12.082;2024-02-26T08:37:25;96912.22;;;3.10;99.28
62038;BME280;47991;42.974;12.082;2024-02-26T08:39:52;96909.84;;;3.18;99.35
62038;BME280;47991;42.974;12.082;2024-02-26T08:42:19;96908.73;;;3.24;99.81
62038;BME280;47991;42.974;12.082;2024-02-26T08:44:45;96902.27;;;3.36;99.91
62038;BME280;47991;42.974;12.082;2024-02-26T08:47:12;96897.95;;;3.57;99.83
62038;BME280;47991;42.974;12.082;2024-02-26T08:49:44;96895.23;;;3.75;99.80
62038;BME280;47991;42.974;12.082;2024-02-26T08:52:11;96893.85;;;4.08;99.72
62038;BME280;47991;42.974;12.082;2024-02-26T08:54:38;96887.63;;;4.43;98.66
62038;BME280;47991;42.974;12.082;2024-02-26T08:57:05;96878.58;;;4.50;95.97
62038;BME280;47991;42.974;12.082;2024-02-26T08:59:32;96877.67;;;4.61;96.73
62038;BME280;47991;42.974;12.082;2024-02-26T09:01:59;96873.83;;;4.87;96.31
62038;BME280;47991;42.974;12.082;2024-02-26T09:04:26;96866.27;;;5.06;95.62
62038;BME280;47991;42.974;12.082;2024-02-26T09:06:53;96865.83;;;5.26;95.73
62038;BME280;47991;42.974;12.082;2024-02-26T09:09:21;96864.05;;;5.52;95.18
62038;BME280;47991;42.974;12.082;2024-02-26T09:11:49;96862.73;;;5.78;94.82
62038;BME280;47991;42.974;12.082;2024-02-26T09:14:18;96865.21;;;6.08;94.87
62038;BME280;47991;42.974;12.082;2024-02-26T09:16:45;96863.75;;;6.30;93.90
62038;BME280;47991;42.974;12.082;2024-02-26T09:19:12;96856.69;;;6.46;93.10
62038;BME280;47991;42.974;12.082;2024-02-26T09:21:45;96854.95;;;6.51;93.17
62038;BME280;47991;42.974;12.082;2024-02-26T09:24:12;96855.08;;;6.46;92.38
62038;BME280;47991;42.974;12.082;2024-02-26T09:26:39;96853.33;;;6.32;92.14
62038;BME280;47991;42.974;12.082;2024-02-26T09:29:06;96852.98;;;6.32;93.41
62038;BME280;47991;42.974;12.082;2024-02-26T09:31:34;96857.15;;;6.28;91.77
62038;BME280;47991;42.974;12.082;2024-02-26T09:34:02;96853.33;;;6.26;93.08
62038;BME280;47991;42.974;12.082;2024-02-26T09:36:29;96851.52;;;6.14;91.09
62038;BME280;47991;42.974;12.082;2024-02-26T09:38:56;96850.19;;;6.11;93.23
62038;BME280;47991;42.974;12.082;2024-02-26T09:41:23;96847.63;;;6.16;92.93
62038;BME280;47991;42.974;12.082;2024-02-26T09:43:55;96847.59;;;6.44;93.73
62038;BME280;47991;42.974;12.082;2024-02-26T09:46:26;96838.42;;;6.77;93.77
62038;BME280;47991;42.974;12.082;2024-02-26T09:48:53;96839.11;;;6.84;91.80
62038;BME280;47991;42.974;12.082;2024-02-26T09:51:25;96840.02;;;6.77;91.54
62038;BME280;47991;42.974;12.082;2024-02-26T09:53:52;96838.10;;;6.70;91.98
62038;BME280;47991;42.974;12.082;2024-02-26T09:56:21;96833.65;;;6.72;92.85
62038;BME280;47991;42.974;12.082;2024-02-26T09:58:52;96834.27;;;6.81;92.64
62038;BME280;47991;42.974;12.082;2024-02-26T10:01:22;96834.34;;;6.85;91.44
62038;BME280;47991;42.974;12.082;2024-02-26T10:03:55;96825.83;;;7.06;92.76
62038;BME280;47991;42.974;12.082;2024-02-26T10:06:26;96822.55;;;7.27;92.85
62038;BME280;47991;42.974;12.082;2024-02-26T10:08:53;96830.86;;;7.38;91.59
62038;BME280;47991;42.974;12.082;2024-02-26T10:11:22;96825.39;;;7.50;91.72
62038;BME280;47991;42.974;12.082;2024-02-26T10:13:51;96825.10;;;7.59;90.41
62038;BME280;47991;42.974;12.082;2024-02-26T10:16:18;96820.04;;;7.63;90.21
62038;BME280;47991;42.974;12.082;2024-02-26T10:18:50;96817.36;;;7.65;90.31
62038;BME280;47991;42.974;12.082;2024-02-26T10:21:18;96815.38;;;7.55;88.08
62038;BME280;47991;42.974;12.082;2024-02-26T10:23:46;96813.27;;;7.66;88.53
62038;BME280;47991;42.974;12.082;2024-02-26T10:26:15;96815.24;;;7.70;88.54
62038;BME280;47991;42.974;12.082;2024-02-26T10:28:43;96814.43;;;7.73;87.89
62038;BME280;47991;42.974;12.082;2024-02-26T10:31:10;96808.78;;;7.85;83.67
62038;BME280;47991;42.974;12.082;2024-02-26T10:33:38;96799.83;;;8.11;80.10
62038;BME280;47991;42.974;12.082;2024-02-26T10:36:07;96797.11;;;8.28;78.69
62038;BME280;47991;42.974;12.082;2024-02-26T10:38:36;96789.42;;;8.42;80.13
62038;BME280;47991;42.974;12.082;2024-02-26T10:41:06;96794.23;;;8.51;79.76
62038;BME280;47991;42.974;12.082;2024-02-26T10:43:35;96794.41;;;8.25;79.49
62038;BME280;47991;42.974;12.082;2024-02-26T10:46:02;96794.08;;;8.34;78.73
62038;BME280;47991;42.974;12.082;2024-02-26T10:48:30;96781.17;;;8.51;69.35
62038;BME280;47991;42.974;12.082;2024-02-26T10:50:57;96787.21;;;8.65;69.15
62038;BME280;47991;42.974;12.082;2024-02-26T10:53:29;96781.52;;;8.76;67.99
62038;BME280;47991;42.974;12.082;2024-02-26T10:56:01;96784.73;;;9.04;65.47
62038;BME280;47991;42.974;12.082;2024-02-26T10:58:31;96781.61;;;9.25;57.29
62038;BME280;47991;42.974;12.082;2024-02-26T11:00:58;96776.41;;;9.41;56.59
62038;BME280;47991;42.974;12.082;2024-02-26T11:03:26;96772.12;;;9.55;60.45
62038;BME280;47991;42.974;12.082;2024-02-26T11:05:54;96766.20;;;9.66;60.16
62038;BME280;47991;42.974;12.082;2024-02-26T11:08:21;96767.66;;;9.69;59.69
62038;BME280;47991;42.974;12.082;2024-02-26T11:10:53;96761.17;;;9.68;54.44
62038;BME280;47991;42.974;12.082;2024-02-26T11:13:21;96758.19;;;9.72;55.13
62038;BME280;47991;42.974;12.082;2024-02-26T11:15:48;96759.38;;;9.70;53.83
62038;BME280;47991;42.974;12.082;2024-02-26T11:18:19;96756.83;;;9.67;54.23
62038;BME280;47991;42.974;12.082;2024-02-26T11:20:48;96763.23;;;9.61;52.31
62038;BME280;47991;42.974;12.082;2024-02-26T11:23:16;96753.12;;;9.63;53.85
62038;BME280;47991;42.974;12.082;2024-02-26T11:25:43;96750.79;;;9.72;56.16
62038;BME280;47991;42.974;12.082;2024-02-26T11:28:13;96738.98;;;9.84;56.73
62038;BME280;47991;42.974;12.082;2024-02-26T11:30:45;96737.30;;;9.87;58.60
62038;BME280;47991;42.974;12.082;2024-02-26T11:33:14;96727.50;;;10.02;58.02
62038;BME280;47991;42.974;12.082;2024-02-26T11:35:42;96722.03;;;10.22;57.18
62038;BME280;47991;42.974;12.082;2024-02-26T11:38:17;96718.67;;;10.39;56.78
62038;BME280;47991;42.974;12.082;2024-02-26T11:40:47;96714.39;;;10.48;53.07
62038;BME280;47991;42.974;12.082;2024-02-26T11:43:14;96717.70;;;10.60;53.44
62038;BME280;47991;42.974;12.082;2024-02-26T11:48:23;96716.98;;;10.56;52.60
62038;BME280;47991;42.974;12.082;2024-02-26T11:50:55;96720.13;;;10.38;50.72
62038;BME280;47991;42.974;12.082;2024-02-26T11:53:30;96720.81;;;10.30;52.48
62038;BME280;47991;42.974;12.082;2024-02-26T11:58:43;96719.13;;;10.07;54.24
62038;BME280;47991;42.974;12.082;2024-02-26T12:01:36;96721.90;;;10.09;55.68
62038;BME280;47991;42.974;12.082;2024-02-26T12:04:17;96719.60;;;10.04;57.09
62038;BME280;47991;42.974;12.082;2024-02-26T12:06:47;96725.00;;;10.02;57.78
62038;BME280;47991;42.974;12.082;2024-02-26T12:09:37;96721.58;;;9.91;56.47
62038;BME280;47991;42.974;12.082;2024-02-26T12:12:09;96727.06;;;9.87;56.80
62038;BME280;47991;42.974;12.082;2024-02-26T12:14:50;96713.54;;;9.72;58.19
62038;BME280;47991;42.974;12.082;2024-02-26T12:17:23;96710.77;;;9.76;58.61
62038;BME280;47991;42.974;12.082;2024-02-26T12:19:52;96708.95;;;9.81;58.75
62038;BME280;47991;42.974;12.082;2024-02-26T12:22:20;96703.91;;;9.71;58.43
62038;BME280;47991;42.974;12.082;2024-02-26T12:24:58;96691.01;;;9.67;57.55
62038;BME280;47991;42.974;12.082;2024-02-26T12:27:25;96694.08;;;9.86;57.90
62038;BME280;47991;42.974;12.082;2024-02-26T12:29:53;96688.38;;;9.83;57.27
62038;BME280;47991;42.974;12.082;2024-02-26T12:32:21;96697.94;;;9.66;58.30
62038;BME280;47991;42.974;12.082;2024-02-26T12:34:49;96685.50;;;9.72;57.85
62038;BME280;47991;42.974;12.082;2024-02-26T12:37:17;96683.45;;;9.66;59.30
62038;BME280;47991;42.974;12.082;2024-02-26T12:39:45;96692.33;;;9.65;58.43
62038;BME280;47991;42.974;12.082;2024-02-26T12:42:14;96683.77;;;9.67;57.98
62038;BME280;47991;42.974;12.082;2024-02-26T12:44:42;96681.70;;;9.65;58.40
62038;BME280;47991;42.974;12.082;2024-02-26T12:47:12;96675.69;;;9.78;58.09
62038;BME280;47991;42.974;12.082;2024-02-26T12:49:47;96667.19;;;9.87;57.41
62038;BME280;47991;42.974;12.082;2024-02-26T12:52:16;96663.86;;;10.03;57.16
62038;BME280;47991;42.974;12.082;2024-02-26T12:54:44;96663.49;;;10.07;57.87
62038;BME280;47991;42.974;12.082;2024-02-26T12:57:11;96674.88;;;9.90;56.68
62038;BME280;47991;42.974;12.082;2024-02-26T12:59:41;96678.36;;;9.99;56.46
62038;BME280;47991;42.974;12.082;2024-02-26T13:02:09;96681.63;;;9.88;57.45
62038;BME280;47991;42.974;12.082;2024-02-26T13:04:36;96675.62;;;10.01;58.10
62038;BME280;47991;42.974;12.082;2024-02-26T13:07:05;96667.77;;;10.11;58.10
62038;BME280;47991;42.974;12.082;2024-02-26T13:09:33;96666.04;;;10.30;58.30